Time;durP1;ratioP1;P1;durP2;ratioP2;P2;SDS_P1;SDS_P2;PMS_P1;PMS_P2;Temp;Humidity;BMP_temperature;BMP_pressure;BME280_temperature;BME280_humidity;BME280_pressure;Samples;Min_cycle;Max_cycle;Signal;HPM_P1;HPM_P2
2022/03/08 00:00:05;;;;;;;2.80;1.70;;;-0.30;96.10;;;;;;5088207;28;20251;-50
2022/03/08 00:21:49;;;;;;;2.17;1.80;;;-0.50;96.40;;;;;;5104041;28;20188;-51
2022/03/08 00:24:34;;;;;;;2.13;2.03;;;-0.40;96.40;;;;;;5086679;28;20189;-57
2022/03/08 00:27:18;;;;;;;3.60;1.17;;;-0.30;96.30;;;;;;5087998;28;20189;-56
2022/03/08 00:30:06;;;;;;;1.83;1.77;;;-0.30;96.20;;;;;;5089143;28;20267;-56
2022/03/08 00:32:53;;;;;;;2.20;2.10;;;-0.40;96.20;;;;;;5088351;28;20250;-53
2022/03/08 00:35:37;;;;;;;1.17;1.17;;;-0.40;96.30;;;;;;5088446;28;20281;-54
2022/03/08 00:38:22;;;;;;;1.90;1.80;;;-0.30;96.20;;;;;;5089605;28;20266;-53
2022/03/08 00:41:06;;;;;;;1.80;1.73;;;-0.30;96.00;;;;;;5087511;28;20196;-54
2022/03/08 00:43:51;;;;;;;1.53;1.33;;;-0.40;96.10;;;;;;5086686;28;20189;-55
2022/03/08 00:46:35;;;;;;;1.73;1.50;;;-0.40;96.10;;;;;;5088723;28;20284;-56
2022/03/08 00:49:20;;;;;;;2.17;1.23;;;-0.40;96.20;;;;;;5074753;28;20243;-54
2022/03/08 00:52:06;;;;;;;2.27;2.07;;;-0.40;96.10;;;;;;5075277;28;20193;-52
2022/03/08 00:54:50;;;;;;;2.90;1.37;;;-0.50;96.20;;;;;;5073965;28;20236;-57
2022/03/08 00:57:34;;;;;;;4.27;2.00;;;-0.60;96.40;;;;;;5073185;28;20232;-54
2022/03/08 01:00:22;;;;;;;5.00;2.27;;;-0.80;96.60;;;;;;5074847;28;20215;-54
2022/03/08 01:03:07;;;;;;;4.30;1.53;;;-0.70;97.10;;;;;;5102210;28;20274;-54
2022/03/08 01:05:52;;;;;;;4.10;2.67;;;-0.70;96.80;;;;;;5067272;28;20240;-53
2022/03/08 01:08:36;;;;;;;2.93;2.00;;;-0.70;96.80;;;;;;5074586;28;20189;-53
2022/03/08 01:11:21;;;;;;;1.83;1.73;;;-0.80;96.80;;;;;;5075555;28;20201;-54
2022/03/08 01:14:07;;;;;;;1.60;1.50;;;-0.80;96.80;;;;;;5074435;28;20197;-52
2022/03/08 01:16:52;;;;;;;0.93;0.93;;;-0.80;96.90;;;;;;5075487;28;20236;-51
2022/03/08 01:19:36;;;;;;;2.67;1.17;;;-0.80;96.80;;;;;;5073779;28;20193;-50
2022/03/08 01:22:21;;;;;;;1.50;1.27;;;-0.90;96.80;;;;;;5074095;28;20220;-48
2022/03/08 01:25:07;;;;;;;2.60;1.60;;;-0.90;96.80;;;;;;5070158;28;20204;-53
2022/03/08 01:27:52;;;;;;;2.50;1.80;;;-0.90;96.90;;;;;;5072377;28;20251;-51
2022/03/08 01:30:37;;;;;;;0.73;0.73;;;-0.90;97.00;;;;;;5073652;28;20201;-53
2022/03/08 01:33:21;;;;;;;1.30;1.30;;;-1.10;97.20;;;;;;5074992;28;20208;-53
2022/03/08 01:36:06;;;;;;;3.20;2.33;;;-1.20;97.30;;;;;;5071000;28;20282;-53
2022/03/08 01:38:51;;;;;;;1.57;1.47;;;-1.10;97.50;;;;;;5069999;28;20232;-51
2022/03/08 01:41:35;;;;;;;1.97;1.87;;;-1.20;97.60;;;;;;5072437;28;20180;-54
2022/03/08 01:44:20;;;;;;;1.77;1.63;;;-1.20;97.80;;;;;;5069162;28;20240;-48
2022/03/08 01:47:05;;;;;;;2.77;1.07;;;-1.20;97.90;;;;;;5069125;28;20192;-50
2022/03/08 01:49:51;;;;;;;1.90;1.80;;;-1.30;97.90;;;;;;5069515;28;20242;-55
2022/03/08 01:52:37;;;;;;;3.20;2.80;;;-1.40;98.30;;;;;;5067872;28;20184;-53
2022/03/08 01:55:22;;;;;;;1.37;1.27;;;-1.40;98.50;;;;;;5071858;28;20258;-54
2022/03/08 01:58:06;;;;;;;1.83;1.73;;;-1.40;98.60;;;;;;5067882;28;20235;-57
2022/03/08 02:00:51;;;;;;;1.30;1.30;;;-1.50;98.80;;;;;;5067362;28;20251;-56
2022/03/08 02:03:35;;;;;;;3.70;1.57;;;-1.50;98.70;;;;;;5071024;28;20269;-50
2022/03/08 02:06:20;;;;;;;3.17;2.40;;;-1.50;98.80;;;;;;5069030;28;20188;-56
2022/03/08 02:09:04;;;;;;;2.70;2.50;;;-1.50;98.60;;;;;;5070702;28;20212;-54
2022/03/08 02:12:39;;;;;;;1.20;1.10;;;-1.70;98.80;;;;;;5067435;28;20193;-53
2022/03/08 02:15:28;;;;;;;2.07;1.87;;;-1.70;99.00;;;;;;5069969;28;20192;-55
2022/03/08 02:18:13;;;;;;;2.97;1.13;;;-1.70;99.30;;;;;;5067517;28;20254;-55
2022/03/08 02:21:03;;;;;;;1.27;1.27;;;-1.70;99.40;;;;;;5070613;28;20247;-57
2022/03/08 02:23:47;;;;;;;1.70;0.90;;;-1.70;99.30;;;;;;5069372;28;20215;-54
2022/03/08 02:26:31;;;;;;;2.00;1.80;;;-1.70;99.50;;;;;;5067709;28;20189;-53
2022/03/08 02:29:16;;;;;;;2.80;2.60;;;-1.80;99.60;;;;;;5070709;28;20193;-49
2022/03/08 02:32:00;;;;;;;3.77;2.07;;;-2.00;99.80;;;;;;5069382;28;20272;-54
2022/03/08 02:34:44;;;;;;;2.93;1.93;;;-1.90;99.90;;;;;;5070010;28;20200;-51
2022/03/08 02:37:39;;;;;;;2.10;1.90;;;-1.90;99.90;;;;;;5070990;28;20225;-51
2022/03/08 02:40:27;;;;;;;2.73;1.50;;;-1.80;99.90;;;;;;5068023;28;20282;-54
2022/03/08 02:43:13;;;;;;;5.53;2.37;;;-1.90;99.90;;;;;;5069102;28;20190;-53
2022/03/08 02:45:57;;;;;;;1.50;1.40;;;-1.90;99.90;;;;;;5069310;28;20197;-47
2022/03/08 02:48:42;;;;;;;2.70;1.37;;;-1.90;99.90;;;;;;5067337;28;20253;-52
2022/03/08 02:51:26;;;;;;;1.17;1.07;;;-1.90;99.90;;;;;;5071629;28;20677;-54
2022/03/08 02:54:10;;;;;;;2.23;1.17;;;-2.00;99.90;;;;;;5069997;28;20241;-53
2022/03/08 02:56:55;;;;;;;3.30;1.60;;;-2.00;99.90;;;;;;5066848;28;20335;-50
2022/03/08 02:59:39;;;;;;;1.63;1.53;;;-2.10;99.90;;;;;;5070034;28;20238;-55
2022/03/08 03:02:24;;;;;;;2.07;1.97;;;-2.00;99.90;;;;;;5068286;28;20211;-53
2022/03/08 03:05:14;;;;;;;1.90;1.27;;;-2.00;99.90;;;;;;5069797;28;20284;-52
2022/03/08 03:07:58;;;;;;;5.73;1.80;;;-2.00;99.90;;;;;;5069294;28;20220;-53
2022/03/08 03:10:43;;;;;;;1.70;1.37;;;-2.00;99.90;;;;;;5066751;28;20286;-56
2022/03/08 03:13:28;;;;;;;3.07;1.63;;;-2.00;99.90;;;;;;5068189;28;20193;-50
2022/03/08 03:16:12;;;;;;;1.73;1.63;;;-2.10;99.90;;;;;;5070030;28;20300;-54
2022/03/08 03:18:56;;;;;;;9.83;1.80;;;-2.10;99.90;;;;;;5062774;28;20208;-55
2022/03/08 03:21:41;;;;;;;0.83;0.80;;;-2.10;99.90;;;;;;5067346;28;20236;-53
2022/03/08 03:24:25;;;;;;;1.70;1.60;;;-2.20;99.90;;;;;;5068636;28;20243;-56
2022/03/08 03:27:10;;;;;;;2.33;2.23;;;-2.10;99.90;;;;;;5049499;28;20202;-54
2022/03/08 03:29:54;;;;;;;2.10;1.90;;;-2.30;99.90;;;;;;5069082;28;20193;-55
2022/03/08 03:32:39;;;;;;;5.03;1.97;;;-2.20;99.90;;;;;;5069114;28;20197;-55
2022/03/08 03:35:23;;;;;;;2.80;2.20;;;-2.20;99.90;;;;;;5070157;28;20211;-56
2022/03/08 03:38:08;;;;;;;2.33;2.03;;;-2.30;99.90;;;;;;5071313;28;20219;-53
2022/03/08 03:40:52;;;;;;;1.67;1.33;;;-2.30;99.90;;;;;;5068702;28;20256;-56
2022/03/08 03:43:37;;;;;;;5.23;1.70;;;-2.30;99.90;;;;;;5071036;28;20220;-53
2022/03/08 03:46:21;;;;;;;2.03;1.90;;;-2.20;99.90;;;;;;5070240;28;20192;-56
2022/03/08 03:49:06;;;;;;;5.53;1.83;;;-2.30;99.90;;;;;;5068383;28;20188;-54
2022/03/08 03:51:51;;;;;;;2.03;1.30;;;-2.30;99.90;;;;;;5071656;28;20204;-55
2022/03/08 03:54:35;;;;;;;1.30;1.20;;;-2.30;99.90;;;;;;5069412;28;20204;-57
2022/03/08 03:57:20;;;;;;;4.03;1.20;;;-2.30;99.90;;;;;;5069276;28;20639;-55
2022/03/08 04:00:06;;;;;;;1.40;1.40;;;-2.40;99.90;;;;;;5071745;28;20212;-56
2022/03/08 04:02:50;;;;;;;2.30;1.80;;;-2.40;99.90;;;;;;5068371;28;20243;-57
2022/03/08 04:05:35;;;;;;;1.27;1.20;;;-2.40;99.90;;;;;;5069899;28;20216;-47
2022/03/08 04:08:20;;;;;;;0.67;0.67;;;-2.40;99.90;;;;;;5070763;28;20197;-53
2022/03/08 04:11:04;;;;;;;5.80;2.03;;;-2.40;99.90;;;;;;5068274;28;20200;-47
2022/03/08 04:13:49;;;;;;;1.67;0.87;;;-2.50;99.90;;;;;;5070693;28;20192;-56
2022/03/08 04:16:33;;;;;;;2.80;0.77;;;-2.50;99.90;;;;;;5069886;28;20327;-54
2022/03/08 04:19:18;;;;;;;1.07;1.03;;;-2.50;99.90;;;;;;5068562;28;20204;-50
2022/03/08 04:22:03;;;;;;;1.50;1.10;;;-2.60;99.90;;;;;;5071571;28;20185;-52
2022/03/08 04:24:47;;;;;;;1.50;1.40;;;-2.60;99.90;;;;;;5073196;28;20228;-52
2022/03/08 04:27:31;;;;;;;1.33;1.33;;;-2.60;99.90;;;;;;5072736;28;20200;-49
2022/03/08 04:30:16;;;;;;;2.23;1.43;;;-2.70;99.90;;;;;;5075151;28;20193;-52
2022/03/08 04:33:01;;;;;;;1.57;1.50;;;-2.70;99.90;;;;;;5072489;28;20196;-55
2022/03/08 04:35:46;;;;;;;1.80;1.70;;;-2.70;99.90;;;;;;5072744;28;20188;-52
2022/03/08 04:38:30;;;;;;;2.50;2.30;;;-2.70;99.90;;;;;;5074317;28;20201;-53
2022/03/08 04:41:15;;;;;;;1.30;1.20;;;-2.70;99.90;;;;;;5071851;28;20201;-47
2022/03/08 04:43:59;;;;;;;4.40;1.67;;;-2.70;99.90;;;;;;5074035;28;20254;-48
2022/03/08 04:46:43;;;;;;;2.87;2.00;;;-2.70;99.90;;;;;;5073515;28;20197;-53
2022/03/08 04:49:28;;;;;;;6.03;1.33;;;-2.80;99.90;;;;;;5072248;28;20197;-52
2022/03/08 04:52:12;;;;;;;1.57;1.47;;;-2.80;99.90;;;;;;5074579;28;20265;-52
2022/03/08 04:54:57;;;;;;;1.77;1.67;;;-2.80;99.90;;;;;;5071895;28;20197;-56
2022/03/08 04:57:41;;;;;;;2.40;1.13;;;-2.80;99.90;;;;;;5071747;28;20235;-55
2022/03/08 05:00:26;;;;;;;0.77;0.77;;;-2.80;99.90;;;;;;5074174;28;20219;-53
2022/03/08 05:03:10;;;;;;;2.33;1.57;;;-2.90;99.90;;;;;;5071163;28;20217;-56
2022/03/08 05:05:54;;;;;;;2.20;0.97;;;-3.00;99.90;;;;;;5073007;28;20203;-52
2022/03/08 05:08:38;;;;;;;7.03;2.23;;;-3.00;99.90;;;;;;5073381;28;20193;-54
2022/03/08 05:11:23;;;;;;;6.60;5.20;;;-2.90;99.90;;;;;;5070913;28;20216;-50
2022/03/08 05:14:07;;;;;;;2.17;1.97;;;-2.60;99.90;;;;;;5074513;28;20197;-55
2022/03/08 05:16:52;;;;;;;0.67;0.67;;;-2.40;99.90;;;;;;5073096;28;20295;-54
2022/03/08 05:19:37;;;;;;;1.73;1.63;;;-2.30;99.90;;;;;;5071681;28;20260;-50
2022/03/08 05:22:22;;;;;;;1.13;1.13;;;-2.30;99.90;;;;;;5074248;28;20196;-50
2022/03/08 05:25:07;;;;;;;2.20;1.53;;;-2.20;99.90;;;;;;5071196;28;20201;-53
2022/03/08 05:27:51;;;;;;;1.97;1.40;;;-2.20;99.90;;;;;;5071861;28;20273;-50
2022/03/08 05:30:36;;;;;;;1.60;1.50;;;-2.50;99.90;;;;;;5073688;28;20277;-51
2022/03/08 05:33:20;;;;;;;2.73;1.37;;;-2.60;99.90;;;;;;5070132;28;20244;-53
2022/03/08 05:36:04;;;;;;;4.13;2.50;;;-2.30;99.90;;;;;;5072452;28;20231;-53
2022/03/08 05:38:49;;;;;;;3.97;1.93;;;-2.50;99.90;;;;;;5073084;28;20197;-54
2022/03/08 05:41:34;;;;;;;1.40;1.33;;;-2.70;99.90;;;;;;5070497;28;20223;-54
2022/03/08 05:44:18;;;;;;;5.93;2.37;;;-2.70;99.90;;;;;;5073542;28;20244;-56
2022/03/08 05:47:02;;;;;;;2.13;2.03;;;-3.00;99.90;;;;;;5071960;28;20196;-53
2022/03/08 05:49:46;;;;;;;1.83;1.20;;;-3.10;99.90;;;;;;5069741;28;20200;-53
2022/03/08 05:52:31;;;;;;;1.83;1.73;;;-3.00;99.90;;;;;;5069353;28;20223;-48
2022/03/08 05:55:15;;;;;;;1.40;1.30;;;-3.00;99.90;;;;;;5070386;28;20196;-49
2022/03/08 05:57:59;;;;;;;2.43;1.70;;;-3.10;99.90;;;;;;5069644;28;20236;-48
2022/03/08 06:00:44;;;;;;;2.17;2.03;;;-3.10;99.90;;;;;;5071459;28;20193;-55
2022/03/08 06:03:28;;;;;;;1.00;1.00;;;-3.00;99.90;;;;;;5068724;28;20243;-56
2022/03/08 06:06:13;;;;;;;0.80;0.80;;;-3.00;99.90;;;;;;5071880;28;20189;-52
2022/03/08 06:08:58;;;;;;;0.93;0.83;;;-2.90;99.90;;;;;;5070052;28;20208;-55
2022/03/08 06:11:42;;;;;;;3.80;2.07;;;-2.90;99.90;;;;;;5068481;28;20606;-53
2022/03/08 06:14:27;;;;;;;3.37;2.10;;;-2.90;99.90;;;;;;5072105;28;20256;-54
2022/03/08 06:17:11;;;;;;;2.23;1.97;;;-3.00;99.90;;;;;;5070369;28;20262;-51
2022/03/08 06:19:56;;;;;;;1.30;1.23;;;-2.90;99.90;;;;;;5070543;28;20208;-50
2022/03/08 06:22:40;;;;;;;2.60;2.40;;;-2.90;99.90;;;;;;5070397;28;20184;-48
2022/03/08 06:25:25;;;;;;;1.90;1.80;;;-2.80;99.90;;;;;;5068502;28;20196;-53
2022/03/08 06:28:09;;;;;;;4.47;2.30;;;-3.00;99.90;;;;;;5068457;28;20185;-49
2022/03/08 06:30:53;;;;;;;1.13;1.13;;;-2.90;99.90;;;;;;5072344;28;20189;-53
2022/03/08 06:33:38;;;;;;;1.17;1.17;;;-2.80;99.90;;;;;;5069755;28;20193;-50
2022/03/08 06:36:22;;;;;;;1.30;1.27;;;-2.70;99.90;;;;;;5070473;28;20229;-50
2022/03/08 06:39:06;;;;;;;1.27;1.17;;;-2.70;99.90;;;;;;5060614;28;20215;-55
2022/03/08 06:41:51;;;;;;;3.33;2.17;;;-2.80;99.90;;;;;;5067825;28;20208;-53
2022/03/08 06:44:38;;;;;;;3.10;1.83;;;-2.70;99.90;;;;;;5069224;28;20180;-51
2022/03/08 06:47:23;;;;;;;2.20;1.70;;;-2.70;99.90;;;;;;5066584;28;20260;-55
2022/03/08 06:50:07;;;;;;;1.67;1.57;;;-2.80;99.90;;;;;;5068519;28;20186;-50
2022/03/08 06:52:52;;;;;;;5.63;2.27;;;-2.80;99.90;;;;;;5070311;28;20219;-54
2022/03/08 06:55:36;;;;;;;3.20;2.10;;;-2.60;99.90;;;;;;5067540;28;20188;-50
2022/03/08 06:58:20;;;;;;;1.70;1.60;;;-2.70;99.90;;;;;;5069297;28;20282;-53
2022/03/08 07:01:04;;;;;;;7.07;1.90;;;-2.50;99.90;;;;;;5070583;28;20266;-51
2022/03/08 07:03:48;;;;;;;4.50;2.30;;;-2.30;99.90;;;;;;5065581;28;20197;-52
2022/03/08 07:06:33;;;;;;;4.70;3.03;;;-2.50;99.90;;;;;;5066449;28;20205;-53
2022/03/08 07:09:17;;;;;;;2.97;2.13;;;-2.50;99.90;;;;;;5069164;28;20180;-50
2022/03/08 07:12:02;;;;;;;1.13;1.07;;;-2.40;99.90;;;;;;5068144;28;20189;-53
2022/03/08 07:14:47;;;;;;;2.63;2.43;;;-2.30;99.90;;;;;;5070930;28;20232;-52
2022/03/08 07:17:31;;;;;;;4.10;1.97;;;-2.30;99.90;;;;;;5062022;28;20217;-51
2022/03/08 07:20:15;;;;;;;4.97;1.77;;;-2.20;99.90;;;;;;5068600;28;20315;-48
2022/03/08 07:23:00;;;;;;;1.77;1.70;;;-2.20;99.90;;;;;;5070358;28;20288;-49
2022/03/08 07:25:45;;;;;;;4.97;2.53;;;-2.10;99.90;;;;;;5065805;28;20343;-49
2022/03/08 07:28:29;;;;;;;1.57;1.47;;;-2.00;99.90;;;;;;5068020;28;20189;-50
2022/03/08 07:31:14;;;;;;;2.93;1.87;;;-2.00;99.90;;;;;;5069415;28;20282;-49
2022/03/08 07:33:59;;;;;;;2.53;2.33;;;-1.90;99.90;;;;;;5067113;28;20196;-55
2022/03/08 07:36:43;;;;;;;2.73;1.63;;;-1.80;99.90;;;;;;5064164;28;20316;-49
2022/03/08 07:39:27;;;;;;;1.63;1.50;;;-1.70;99.90;;;;;;5068584;28;20216;-53
2022/03/08 07:42:12;;;;;;;1.50;1.40;;;-1.70;99.90;;;;;;5067514;28;20201;-51
2022/03/08 07:44:56;;;;;;;2.63;2.40;;;-1.60;99.90;;;;;;5065819;28;20205;-52
2022/03/08 07:47:40;;;;;;;5.67;2.00;;;-1.50;99.90;;;;;;5062465;28;20193;-51
2022/03/08 07:50:25;;;;;;;1.97;1.70;;;-1.40;99.90;;;;;;5066934;28;20246;-50
2022/03/08 07:53:09;;;;;;;1.87;1.77;;;-1.20;99.90;;;;;;5066836;28;20201;-54
2022/03/08 07:55:54;;;;;;;2.30;1.97;;;-1.10;99.90;;;;;;5060336;28;20250;-51
2022/03/08 07:58:40;;;;;;;3.43;1.63;;;-1.00;99.90;;;;;;5069454;28;20265;-52
2022/03/08 08:01:24;;;;;;;7.43;2.83;;;-0.90;99.90;;;;;;5071052;28;20193;-52
2022/03/08 08:04:08;;;;;;;7.30;1.80;;;-0.90;99.90;;;;;;5066199;28;20196;-49
2022/03/08 08:06:53;;;;;;;1.97;1.87;;;-0.80;99.90;;;;;;5068585;28;20223;-54
2022/03/08 08:09:38;;;;;;;2.57;2.37;;;-0.70;99.90;;;;;;5071104;28;20329;-57
2022/03/08 08:12:22;;;;;;;3.13;2.93;;;-0.60;99.90;;;;;;5070034;28;20247;-51
2022/03/08 08:15:07;;;;;;;7.33;4.13;;;-0.50;99.90;;;;;;5072984;28;20201;-52
2022/03/08 08:17:51;;;;;;;1.63;1.60;;;-0.40;99.90;;;;;;5067299;28;20225;-50
2022/03/08 08:20:36;;;;;;;1.33;1.23;;;-0.30;99.90;;;;;;5070158;28;20231;-49
2022/03/08 08:23:20;;;;;;;1.70;1.60;;;-0.20;99.90;;;;;;5073123;28;20256;-50
2022/03/08 08:26:04;;;;;;;1.00;1.00;;;-0.20;99.90;;;;;;5063990;28;20248;-53
2022/03/08 08:28:49;;;;;;;3.33;1.37;;;-0.10;99.90;;;;;;5071169;28;20208;-49
2022/03/08 08:31:34;;;;;;;1.87;1.80;;;0.00;99.90;;;;;;5071398;28;20201;-51
2022/03/08 08:34:19;;;;;;;3.07;1.87;;;0.10;99.90;;;;;;5069310;28;20184;-49
2022/03/08 08:37:03;;;;;;;2.53;1.70;;;0.20;99.90;;;;;;5062050;28;20241;-49
2022/03/08 08:39:48;;;;;;;2.30;2.10;;;0.40;99.90;;;;;;5062749;28;20189;-55
2022/03/08 08:42:32;;;;;;;2.53;2.33;;;0.50;99.90;;;;;;5061153;28;20185;-48
2022/03/08 08:45:20;;;;;;;2.10;1.90;;;0.70;99.90;;;;;;5068204;28;20197;-53
2022/03/08 08:48:07;;;;;;;1.77;1.67;;;0.90;99.90;;;;;;5061425;28;20205;-50
2022/03/08 08:50:52;;;;;;;6.07;2.03;;;1.20;99.90;;;;;;5065550;28;20248;-51
2022/03/08 08:53:37;;;;;;;1.80;1.70;;;1.50;99.90;;;;;;5067239;28;20194;-51
2022/03/08 08:56:21;;;;;;;1.50;1.37;;;2.00;99.90;;;;;;5060995;28;20228;-53
2022/03/08 08:59:06;;;;;;;2.00;1.43;;;2.20;99.80;;;;;;5064168;28;20251;-50
2022/03/08 09:01:52;;;;;;;2.60;1.30;;;2.70;99.90;;;;;;5065086;28;20225;-52
2022/03/08 09:04:36;;;;;;;3.27;1.83;;;3.10;99.00;;;;;;5064472;28;20244;-53
2022/03/08 09:07:21;;;;;;;1.93;1.73;;;3.70;97.40;;;;;;5062790;28;20188;-50
2022/03/08 09:10:07;;;;;;;2.10;2.00;;;3.70;96.40;;;;;;5065859;28;20201;-49
2022/03/08 09:12:53;;;;;;;2.27;1.60;;;3.70;96.20;;;;;;5064185;28;20198;-50
2022/03/08 09:15:38;;;;;;;3.60;1.83;;;3.80;95.90;;;;;;5065439;28;20217;-46
2022/03/08 09:18:22;;;;;;;4.30;1.77;;;4.00;95.40;;;;;;5063879;28;20204;-52
2022/03/08 09:21:06;;;;;;;4.00;1.67;;;4.00;94.90;;;;;;5064703;28;20240;-51
2022/03/08 09:23:51;;;;;;;2.13;1.30;;;4.00;94.80;;;;;;5066648;28;20197;-52
2022/03/08 09:26:35;;;;;;;2.20;1.80;;;4.40;94.90;;;;;;5060016;28;20196;-55
2022/03/08 09:29:19;;;;;;;1.93;1.77;;;5.00;94.30;;;;;;5065518;28;20198;-53
2022/03/08 09:32:04;;;;;;;2.43;2.00;;;5.40;93.10;;;;;;5066110;28;20193;-54
2022/03/08 09:34:48;;;;;;;3.20;2.40;;;5.70;93.00;;;;;;5063173;28;20229;-51
2022/03/08 09:37:33;;;;;;;2.03;1.87;;;5.70;92.10;;;;;;5060187;28;20237;-54
2022/03/08 09:40:17;;;;;;;2.20;2.00;;;6.40;91.20;;;;;;5065759;28;20273;-53
2022/03/08 09:43:02;;;;;;;2.70;1.63;;;6.40;90.80;;;;;;5063967;28;20244;-51
2022/03/08 09:45:46;;;;;;;4.13;1.93;;;6.30;91.30;;;;;;5064622;28;20216;-56
2022/03/08 09:48:31;;;;;;;2.47;1.93;;;6.80;90.40;;;;;;5063699;28;20256;-50
2022/03/08 09:51:16;;;;;;;2.90;2.10;;;6.90;89.70;;;;;;5062821;28;20225;-54
2022/03/08 09:54:02;;;;;;;1.90;1.80;;;7.30;88.00;;;;;;5061456;28;20201;-54
2022/03/08 09:56:47;;;;;;;2.13;1.67;;;7.30;86.60;;;;;;5055360;28;20240;-51
2022/03/08 09:59:31;;;;;;;5.53;1.77;;;6.90;87.40;;;;;;5091579;28;20190;-51
2022/03/08 10:02:16;;;;;;;2.70;1.90;;;7.00;87.90;;;;;;5063132;28;20608;-50
2022/03/08 10:05:06;;;;;;;2.27;2.03;;;7.60;86.20;;;;;;5063026;28;20197;-51
2022/03/08 10:08:08;;;;;;;2.07;1.20;;;8.30;85.30;;;;;;5061644;28;20229;-50
2022/03/08 10:11:00;;;;;;;1.60;1.23;;;8.30;79.80;;;;;;5088382;28;20279;-49
2022/03/08 10:13:50;;;;;;;3.27;2.07;;;8.20;79.40;;;;;;5061218;28;20201;-52
2022/03/08 10:16:44;;;;;;;2.30;1.43;;;8.40;79.70;;;;;;5057519;28;20229;-52
2022/03/08 10:19:28;;;;;;;2.00;1.00;;;8.70;76.50;;;;;;5063830;28;20213;-54
2022/03/08 10:22:30;;;;;;;1.80;1.60;;;9.20;72.50;;;;;;5060083;28;20190;-48
2022/03/08 10:25:22;;;;;;;1.27;1.00;;;8.40;73.00;;;;;;5062426;28;20293;-52
2022/03/08 10:28:07;;;;;;;1.60;1.13;;;8.90;71.60;;;;;;5060593;28;20202;-51
2022/03/08 10:30:52;;;;;;;2.37;1.23;;;8.80;73.40;;;;;;5059960;28;20216;-51
2022/03/08 10:33:37;;;;;;;1.13;0.93;;;9.10;68.40;;;;;;5063421;28;20320;-55
2022/03/08 10:36:23;;;;;;;3.90;1.40;;;9.60;68.80;;;;;;5059083;28;20249;-58
2022/03/08 10:39:14;;;;;;;2.40;1.73;;;9.70;68.80;;;;;;5057838;28;20186;-52
2022/03/08 10:41:59;;;;;;;1.83;1.20;;;9.90;67.40;;;;;;5063879;28;20363;-56
2022/03/08 10:44:44;;;;;;;1.37;1.20;;;10.80;66.60;;;;;;5062806;28;20189;-54
2022/03/08 10:47:40;;;;;;;1.67;1.57;;;11.10;65.20;;;;;;5058171;28;20221;-54
2022/03/08 10:50:28;;;;;;;9.03;4.13;;;11.30;63.60;;;;;;5061951;28;20205;-52
2022/03/08 10:53:13;;;;;;;5.00;2.27;;;10.50;63.60;;;;;;5061608;28;20260;-56
2022/03/08 10:55:57;;;;;;;3.47;2.87;;;10.80;63.90;;;;;;5062418;28;20198;-53
2022/03/08 10:58:52;;;;;;;3.97;1.20;;;10.70;63.70;;;;;;5063732;28;20205;-56
2022/03/08 11:01:36;;;;;;;3.10;1.50;;;10.70;63.60;;;;;;5060530;28;20317;-55
2022/03/08 11:04:23;;;;;;;7.90;4.30;;;11.20;62.00;;;;;;5063336;28;20267;-54
2022/03/08 11:07:08;;;;;;;6.17;3.83;;;11.20;61.70;;;;;;5056676;28;20318;-54
2022/03/08 11:09:52;;;;;;;5.67;3.93;;;11.00;60.80;;;;;;5060734;28;20198;-54
2022/03/08 11:12:37;;;;;;;2.00;1.80;;;12.40;59.80;;;;;;5064073;28;20189;-53
2022/03/08 11:15:22;;;;;;;1.90;1.80;;;12.70;59.20;;;;;;5088425;28;20196;-54
2022/03/08 11:18:09;;;;;;;2.87;2.00;;;11.30;60.00;;;;;;5057628;28;20216;-54
2022/03/08 11:20:56;;;;;;;1.30;1.20;;;10.90;61.40;;;;;;5063869;28;20198;-57
2022/03/08 11:23:42;;;;;;;1.47;1.33;;;11.00;61.30;;;;;;5062154;28;20282;-58
2022/03/08 11:26:27;;;;;;;2.73;1.40;;;12.00;60.30;;;;;;5056722;28;20232;-58
2022/03/08 11:29:12;;;;;;;2.07;1.43;;;11.20;59.50;;;;;;5063962;28;20268;-57
2022/03/08 11:32:00;;;;;;;2.47;1.37;;;10.50;61.40;;;;;;5058972;28;20194;-53
2022/03/08 11:34:56;;;;;;;3.37;1.30;;;9.60;62.20;;;;;;5061991;28;20233;-54
2022/03/08 11:37:44;;;;;;;1.17;1.17;;;8.80;62.90;;;;;;5057981;28;20225;-57
2022/03/08 11:40:32;;;;;;;3.10;1.53;;;8.30;64.80;;;;;;5061576;28;20197;-58
2022/03/08 11:43:17;;;;;;;1.30;1.17;;;7.90;65.10;;;;;;5062705;28;20184;-51
2022/03/08 11:46:18;;;;;;;3.10;2.73;;;7.60;66.20;;;;;;5061484;28;20236;-58
2022/03/08 11:49:05;;;;;;;1.60;0.83;;;7.30;68.20;;;;;;5058859;28;20204;-58
2022/03/08 11:52:10;;;;;;;12.80;4.97;;;7.40;67.90;;;;;;5062010;28;20221;-57
2022/03/08 11:54:56;;;;;;;7.33;3.50;;;7.40;67.90;;;;;;5063885;28;20194;-53
2022/03/08 11:57:56;;;;;;;2.17;1.10;;;7.20;67.90;;;;;;5055700;28;20189;-58
2022/03/08 12:01:00;;;;;;;0.90;0.70;;;7.20;68.20;;;;;;5059773;28;20276;-56
2022/03/08 12:03:46;;;;;;;1.07;0.87;;;7.20;67.90;;;;;;5062879;28;20295;-55
2022/03/08 12:06:38;;;;;;;0.93;0.70;;;7.30;67.70;;;;;;5056527;28;20367;-54
2022/03/08 12:09:26;;;;;;;0.80;0.80;;;7.50;68.10;;;;;;5060293;28;20197;-54
2022/03/08 12:12:10;;;;;;;1.00;0.60;;;7.50;67.20;;;;;;5062465;28;20204;-55
2022/03/08 12:15:03;;;;;;;1.17;1.07;;;7.50;66.80;;;;;;5060211;28;20261;-55
2022/03/08 12:18:17;;;;;;;1.17;1.07;;;7.40;68.00;;;;;;5055764;28;20197;-57
2022/03/08 12:24:15;;;;;;;4.77;1.00;;;7.10;68.40;;;;;;5060247;28;20198;-52
2022/03/08 12:27:02;;;;;;;0.77;0.73;;;7.20;68.60;;;;;;5055446;28;20240;-58
2022/03/08 12:29:46;;;;;;;2.53;2.00;;;7.30;68.60;;;;;;5062673;28;20237;-57
2022/03/08 12:32:32;;;;;;;3.63;1.20;;;7.30;68.60;;;;;;5061073;28;20240;-58
2022/03/08 12:35:25;;;;;;;1.10;0.70;;;7.40;69.00;;;;;;5058780;28;20197;-55
2022/03/08 12:38:17;;;;;;;3.60;1.20;;;7.50;67.90;;;;;;5050825;28;20221;-55
2022/03/08 12:41:03;;;;;;;1.53;1.43;;;7.10;68.40;;;;;;5050777;28;20243;-53
2022/03/08 12:43:58;;;;;;;2.77;1.80;;;7.20;69.00;;;;;;5085565;28;20194;-58
2022/03/08 12:46:43;;;;;;;0.73;0.73;;;7.30;69.20;;;;;;5054979;28;20276;-54
2022/03/08 12:49:28;;;;;;;1.27;1.10;;;7.30;69.10;;;;;;5080295;28;20221;-57
2022/03/08 12:52:15;;;;;;;1.03;0.90;;;7.60;68.80;;;;;;5083530;28;20205;-57
2022/03/08 12:55:01;;;;;;;1.87;0.70;;;7.60;68.10;;;;;;5056811;28;20359;-55
2022/03/08 12:57:55;;;;;;;4.13;1.30;;;7.60;67.70;;;;;;5053525;28;20198;-56
2022/03/08 13:00:44;;;;;;;0.90;0.80;;;7.60;68.60;;;;;;5058981;28;20250;-58
2022/03/08 13:03:31;;;;;;;1.60;0.87;;;7.80;68.60;;;;;;5086119;28;20195;-52
2022/03/08 13:06:16;;;;;;;1.00;1.00;;;7.90;68.20;;;;;;5079791;28;20194;-52
2022/03/08 13:09:04;;;;;;;1.00;1.00;;;7.80;67.80;;;;;;5055209;28;20290;-55
2022/03/08 13:11:48;;;;;;;1.43;0.90;;;7.70;68.00;;;;;;5079036;28;20262;-58
2022/03/08 13:14:32;;;;;;;1.83;0.80;;;7.90;69.00;;;;;;5081595;28;20238;-50
2022/03/08 13:17:28;;;;;;;1.37;1.13;;;8.10;68.50;;;;;;5078675;28;20191;-51
2022/03/08 13:20:48;;;;;;;0.90;0.90;;;7.90;67.10;;;;;;5082080;28;20291;-57
2022/03/08 13:23:37;;;;;;;0.80;0.80;;;7.80;68.30;;;;;;5047540;28;20186;-56
2022/03/08 13:30:21;;;;;;;0.70;0.70;;;8.10;68.10;;;;;;4983177;28;20251;-55
2022/03/08 13:33:09;;;;;;;1.20;1.10;;;8.20;68.40;;;;;;4978817;28;20248;-55
2022/03/08 13:36:05;;;;;;;1.03;0.93;;;8.30;68.10;;;;;;4951211;28;20200;-55
2022/03/08 13:38:53;;;;;;;1.57;1.10;;;8.50;67.90;;;;;;4955639;28;20208;-54
2022/03/08 13:41:37;;;;;;;1.80;0.90;;;8.60;67.70;;;;;;4971404;28;20224;-58
2022/03/08 13:44:24;;;;;;;1.30;0.90;;;8.80;67.80;;;;;;4972123;28;20273;-51
2022/03/08 13:47:08;;;;;;;1.43;1.20;;;9.10;68.00;;;;;;4988959;28;20235;-55
2022/03/08 13:49:58;;;;;;;1.10;1.10;;;9.10;65.60;;;;;;4988318;28;20199;-55
2022/03/08 13:52:53;;;;;;;1.60;1.50;;;9.50;66.10;;;;;;4992376;28;20203;-54
2022/03/08 13:55:39;;;;;;;2.27;1.17;;;11.10;64.60;;;;;;4979425;28;20594;-57
2022/03/08 13:58:26;;;;;;;2.13;1.60;;;13.50;61.10;;;;;;4970607;28;20207;-58
2022/03/08 14:01:14;;;;;;;4.17;2.27;;;16.50;56.70;;;;;;5040438;28;20236;-55
2022/03/08 14:03:59;;;;;;;11.63;6.28;;;17.60;53.40;;;;;;5047297;28;20226;-57
2022/03/08 14:06:50;;;;;;;9.65;2.20;;;18.80;52.10;;;;;;5093543;28;20236;-56
2022/03/08 14:09:35;;;;;;;3.95;2.03;;;19.80;49.00;;;;;;5096898;28;20286;-55
2022/03/08 14:12:19;;;;;;;1.60;1.50;;;21.10;47.00;;;;;;5095691;28;20239;-57
2022/03/08 14:15:05;;;;;;;2.08;1.80;;;21.60;46.90;;;;;;5084144;28;20217;-56
2022/03/08 14:18:10;;;;;;;2.60;2.10;;;21.20;44.90;;;;;;5076254;28;20193;-53
2022/03/08 14:20:55;;;;;;;2.05;1.85;;;19.60;45.50;;;;;;5074783;28;20210;-57
2022/03/08 14:23:41;;;;;;;1.70;1.60;;;19.70;46.00;;;;;;5073336;28;20245;-55
2022/03/08 14:26:25;;;;;;;1.88;1.75;;;20.70;44.80;;;;;;5076021;28;20190;-53
2022/03/08 14:29:15;;;;;;;3.90;2.00;;;19.00;47.20;;;;;;5059244;28;20183;-58
2022/03/08 14:32:03;;;;;;;2.65;1.98;;;20.00;45.40;;;;;;5059254;28;20210;-55
2022/03/08 14:34:47;;;;;;;1.70;1.60;;;20.30;45.20;;;;;;5066953;28;20189;-55
2022/03/08 14:37:31;;;;;;;2.50;1.85;;;21.40;44.20;;;;;;5093070;28;20227;-57
2022/03/08 14:40:36;;;;;;;2.03;1.88;;;21.50;43.50;;;;;;5094459;28;20194;-55
2022/03/08 14:43:20;;;;;;;2.17;2.00;;;21.70;42.10;;;;;;5096468;28;20251;-52
2022/03/08 14:49:47;;;;;;;2.95;2.03;;;20.80;43.50;;;;;;5052834;28;20236;-53
2022/03/08 14:52:36;;;;;;;1.73;1.63;;;22.20;41.80;;;;;;5064415;28;20257;-54
2022/03/08 14:55:23;;;;;;;3.17;1.92;;;22.70;41.30;;;;;;5065236;28;20205;-59
2022/03/08 14:58:10;;;;;;;1.98;1.88;;;22.60;41.10;;;;;;5065088;28;20197;-57